Time;durP1;ratioP1;P1;durP2;ratioP2;P2;SDS_P1;SDS_P2;PMS_P1;PMS_P2;Temp;Humidity;BMP_temperature;BMP_pressure;BME280_temperature;BME280_humidity;BME280_pressure;Samples;Min_cycle;Max_cycle;Signal;HPM_P1;HPM_P2
2023/05/13 00:00:16;;;;;;;;;;;;;;;30.47;48.36;101036.16;5126027;27;68984;-40
2023/05/13 00:02:48;;;;;;;;;;;;;;;30.51;48.66;101039.28;5094502;27;66560;-39
2023/05/13 00:05:18;;;;;;;;;;;;;;;30.56;49.99;101036.75;5122698;27;69166;-39
2023/05/13 00:07:49;;;;;;;;;;;;;;;30.54;64.99;101043.44;5121521;27;65377;-40
2023/05/13 00:10:19;;;;;;;;;;;;;;;30.57;69.38;101041.13;5122806;27;70296;-39
2023/05/13 00:12:50;;;;;;;;;;;;;;;30.57;70.20;101033.00;5120722;27;66675;-40
2023/05/13 00:15:20;;;;;;;;;;;;;;;30.65;71.57;101035.47;5127848;27;69153;-39
2023/05/13 00:17:51;;;;;;;;;;;;;;;30.68;72.27;101037.75;5122541;27;66059;-39
2023/05/13 00:20:21;;;;;;;;;;;;;;;30.72;72.85;101024.59;5121511;27;69658;-39
2023/05/13 00:22:52;;;;;;;;;;;;;;;30.89;71.22;101030.38;5103298;27;65508;-41
2023/05/13 00:25:22;;;;;;;;;;;;;;;31.01;71.33;101042.19;5119298;27;69086;-37
2023/05/13 00:27:53;;;;;;;;;;;;;;;31.11;70.60;101047.13;5127353;27;66355;-41
2023/05/13 00:30:23;;;;;;;;;;;;;;;31.15;70.25;101040.25;5120589;27;70273;-41
2023/05/13 00:32:54;;;;;;;;;;;;;;;31.19;70.41;101046.03;5124631;27;66575;-40
2023/05/13 00:35:24;;;;;;;;;;;;;;;31.05;68.13;101048.84;5096125;27;70563;-40
2023/05/13 00:37:55;;;;;;;;;;;;;;;31.04;68.51;101055.31;5125347;27;66203;-40
2023/05/13 00:40:26;;;;;;;;;;;;;;;31.01;68.59;101055.75;5115529;27;68985;-40
2023/05/13 00:42:56;;;;;;;;;;;;;;;31.01;68.96;101061.16;5127306;27;66048;-39
2023/05/13 00:45:26;;;;;;;;;;;;;;;31.05;67.96;101056.97;5100129;27;69810;-40
2023/05/13 00:47:57;;;;;;;;;;;;;;;31.07;67.84;101060.28;5113919;27;66062;-43
2023/05/13 00:50:28;;;;;;;;;;;;;;;31.08;68.58;101059.22;5110586;27;70205;-42
2023/05/13 00:52:59;;;;;;;;;;;;;;;31.10;68.14;101051.72;5108874;27;66281;-40
2023/05/13 00:55:29;;;;;;;;;;;;;;;31.11;68.74;101050.66;5105894;27;69932;-41
2023/05/13 00:57:59;;;;;;;;;;;;;;;31.39;69.89;101054.88;5129040;27;65499;-41
2023/05/13 01:00:32;;;;;;;;;;;;;;;31.51;69.61;101064.00;5125946;27;70692;-43
2023/05/13 01:03:09;;;;;;;;;;;;;;;31.58;70.10;101064.75;5087596;27;66320;-41
2023/05/13 01:06:01;;;;;;;;;;;;;;;31.60;69.96;101070.78;5110049;27;70161;-41
2023/05/13 01:08:40;;;;;;;;;;;;;;;31.59;70.02;101077.28;5099321;27;65776;-39
2023/05/13 01:11:14;;;;;;;;;;;;;;;31.61;69.91;101077.88;5098363;27;69891;-42
2023/05/13 01:13:47;;;;;;;;;;;;;;;31.65;69.66;101072.84;5098289;27;65419;-41
2023/05/13 01:16:26;;;;;;;;;;;;;;;31.66;69.55;101070.97;5118002;27;70494;-42
2023/05/13 01:18:58;;;;;;;;;;;;;;;31.66;69.73;101079.09;5096974;27;65991;-40
2023/05/13 01:21:28;;;;;;;;;;;;;;;31.67;70.34;101080.75;5127529;27;70299;-40
2023/05/13 01:23:59;;;;;;;;;;;;;;;31.65;70.67;101078.28;5129687;27;65580;-41
2023/05/13 01:26:29;;;;;;;;;;;;;;;31.72;71.09;101075.50;5130812;27;69298;-41
2023/05/13 01:29:00;;;;;;;;;;;;;;;31.73;70.66;101079.88;5104892;27;67726;-42
2023/05/13 01:31:31;;;;;;;;;;;;;;;31.77;70.35;101070.25;5115261;27;70416;-40
2023/05/13 01:34:02;;;;;;;;;;;;;;;31.79;71.28;101062.72;5129670;27;65523;-40
2023/05/13 01:36:33;;;;;;;;;;;;;;;31.80;70.86;101058.94;5138091;27;69763;-40
2023/05/13 01:39:04;;;;;;;;;;;;;;;31.85;71.08;101069.97;5111203;27;66109;-42
2023/05/13 01:41:34;;;;;;;;;;;;;;;31.88;70.61;101072.22;5119861;27;70181;-41
2023/05/13 01:44:05;;;;;;;;;;;;;;;31.91;70.83;101071.81;5105726;27;66325;-42
2023/05/13 01:46:38;;;;;;;;;;;;;;;31.93;70.71;101061.56;5128293;27;69662;-41
2023/05/13 01:49:09;;;;;;;;;;;;;;;31.92;70.69;101062.63;5111630;27;66753;-41
2023/05/13 01:51:40;;;;;;;;;;;;;;;31.97;70.41;101068.19;5130970;27;68838;-41
2023/05/13 01:54:10;;;;;;;;;;;;;;;31.94;69.99;101071.38;5134712;27;66125;-41
2023/05/13 01:56:46;;;;;;;;;;;;;;;31.94;69.69;101071.38;5133483;27;70430;-41
2023/05/13 01:59:18;;;;;;;;;;;;;;;31.92;69.64;101072.63;5102566;27;64612;-40
2023/05/13 02:01:48;;;;;;;;;;;;;;;31.80;70.26;101075.22;5109281;27;69743;-41
2023/05/13 02:04:20;;;;;;;;;;;;;;;31.77;69.77;101067.53;5130760;27;65657;-40
2023/05/13 02:06:50;;;;;;;;;;;;;;;31.78;69.26;101061.88;5132608;27;71150;-40
2023/05/13 02:09:21;;;;;;;;;;;;;;;31.78;68.74;101061.03;5118459;27;67130;-41
2023/05/13 02:11:51;;;;;;;;;;;;;;;31.82;68.45;101065.81;5131294;27;69771;-43
2023/05/13 02:14:22;;;;;;;;;;;;;;;31.86;68.48;101062.66;5122403;27;66401;-40
2023/05/13 02:16:52;;;;;;;;;;;;;;;31.88;68.47;101065.97;5127031;27;69600;-42
2023/05/13 02:19:23;;;;;;;;;;;;;;;31.88;68.73;101066.81;5117317;27;66657;-41
2023/05/13 02:21:53;;;;;;;;;;;;;;;31.89;68.14;101057.59;5102112;27;70510;-40
2023/05/13 02:24:24;;;;;;;;;;;;;;;31.94;68.11;101060.50;5102079;27;66711;-40
2023/05/13 02:26:54;;;;;;;;;;;;;;;31.93;68.49;101053.44;5102449;27;69998;-42
2023/05/13 02:29:25;;;;;;;;;;;;;;;31.95;67.94;101043.16;5107835;27;65375;-41
2023/05/13 02:31:56;;;;;;;;;;;;;;;31.99;68.11;101044.41;5099531;27;69804;-40
2023/05/13 02:34:26;;;;;;;;;;;;;;;32.02;67.86;101041.25;5108555;27;66584;-41
2023/05/13 02:36:57;;;;;;;;;;;;;;;32.04;67.76;101041.03;5111551;27;69088;-41
2023/05/13 02:39:27;;;;;;;;;;;;;;;32.04;67.62;101031.00;5103075;27;66458;-41
2023/05/13 02:41:59;;;;;;;;;;;;;;;32.08;68.07;101028.66;5102170;27;70258;-40
2023/05/13 02:44:32;;;;;;;;;;;;;;;32.10;67.56;101020.31;5105790;27;65943;-40
2023/05/13 02:47:03;;;;;;;;;;;;;;;32.12;67.73;101026.31;5110374;27;69127;-40
2023/05/13 02:49:33;;;;;;;;;;;;;;;32.15;67.33;101026.72;5125066;27;66738;-41
2023/05/13 02:52:04;;;;;;;;;;;;;;;32.18;67.24;101023.53;5129159;27;69487;-40
2023/05/13 02:54:36;;;;;;;;;;;;;;;32.20;67.25;101026.00;5105137;27;66260;-41
2023/05/13 02:57:07;;;;;;;;;;;;;;;32.21;67.13;101016.84;5101510;27;69767;-41
2023/05/13 02:59:38;;;;;;;;;;;;;;;32.25;67.44;101028.88;5096662;27;65916;-40
2023/05/13 03:02:08;;;;;;;;;;;;;;;32.26;67.07;101019.66;5103511;27;70529;-41
2023/05/13 03:04:40;;;;;;;;;;;;;;;32.30;67.23;101025.50;5106124;27;67045;-39
2023/05/13 03:07:10;;;;;;;;;;;;;;;32.31;66.76;101022.53;5098820;27;70487;-40
2023/05/13 03:09:41;;;;;;;;;;;;;;;32.33;67.10;101009.56;5092708;27;65971;-42
2023/05/13 03:12:11;;;;;;;;;;;;;;;32.09;66.74;100970.59;5119782;27;71876;-41
2023/05/13 03:14:43;;;;;;;;;;;;;;;32.38;66.77;101012.44;5123397;27;66955;-41
2023/05/13 03:17:13;;;;;;;;;;;;;;;32.41;66.70;101022.84;5124800;27;70449;-42
2023/05/13 03:19:44;;;;;;;;;;;;;;;32.43;66.79;101018.03;5105065;27;66479;-41
2023/05/13 03:22:15;;;;;;;;;;;;;;;32.46;66.59;101006.75;5095909;27;70002;-40
2023/05/13 03:24:45;;;;;;;;;;;;;;;32.49;66.48;101003.56;5120388;27;65826;-40
2023/05/13 03:27:16;;;;;;;;;;;;;;;32.52;66.30;101007.72;5102347;27;69232;-40
2023/05/13 03:29:46;;;;;;;;;;;;;;;32.55;66.35;101001.81;5097232;27;66541;-41
2023/05/13 03:32:17;;;;;;;;;;;;;;;32.59;66.38;100988.59;5110471;27;70764;-41
2023/05/13 03:34:47;;;;;;;;;;;;;;;32.62;66.03;100985.44;5096519;27;65734;-41
2023/05/13 03:37:20;;;;;;;;;;;;;;;32.65;65.92;100990.41;5121864;27;70764;-42
2023/05/13 03:39:51;;;;;;;;;;;;;;;32.68;66.01;100995.38;5121053;27;65747;-41
2023/05/13 03:42:22;;;;;;;;;;;;;;;32.72;65.78;100996.56;5099881;27;70171;-40
2023/05/13 03:44:55;;;;;;;;;;;;;;;32.76;65.60;100991.50;5100317;27;66183;-41
2023/05/13 03:47:26;;;;;;;;;;;;;;;32.77;65.70;100988.56;5124040;27;70045;-40
2023/05/13 03:50:01;;;;;;;;;;;;;;;32.77;65.50;100972.28;5105884;27;66930;-41
2023/05/13 03:52:39;;;;;;;;;;;;;;;32.83;65.36;100976.78;5105748;27;69996;-42
2023/05/13 03:55:10;;;;;;;;;;;;;;;32.85;65.51;100969.22;5105847;27;66569;-41
2023/05/13 03:57:41;;;;;;;;;;;;;;;32.88;65.18;100974.19;5124601;27;69397;-40
2023/05/13 04:00:12;;;;;;;;;;;;;;;32.89;65.23;100967.69;5084669;27;65316;-41
2023/05/13 04:02:43;;;;;;;;;;;;;;;32.90;65.21;100955.78;5123714;27;70203;-41
2023/05/13 04:05:14;;;;;;;;;;;;;;;32.92;65.16;100959.06;5098719;27;65258;-41
2023/05/13 04:07:46;;;;;;;;;;;;;;;32.80;62.95;100955.50;5093631;27;69365;-41
2023/05/13 04:10:16;;;;;;;;;;;;;;;32.51;61.18;100956.34;5122256;27;66559;-41
2023/05/13 04:12:47;;;;;;;;;;;;;;;32.21;59.76;100957.13;5126711;27;69740;-40
2023/05/13 04:15:18;;;;;;;;;;;;;;;32.01;57.81;100952.75;5099947;27;65461;-42
2023/05/13 04:17:48;;;;;;;;;;;;;;;31.85;56.19;100947.06;5119353;27;69822;-41
2023/05/13 04:20:19;;;;;;;;;;;;;;;31.72;54.71;100953.47;5117332;27;65769;-42
2023/05/13 04:22:50;;;;;;;;;;;;;;;31.59;53.86;100949.84;5107692;27;70611;-41
2023/05/13 04:25:20;;;;;;;;;;;;;;;31.50;52.89;100940.31;5127741;27;66949;-41
2023/05/13 04:27:51;;;;;;;;;;;;;;;31.41;51.49;100947.09;5125669;27;70696;-44
2023/05/13 04:30:42;;;;;;;;;;;;;;;31.31;50.99;100952.94;5093846;27;66854;-42
2023/05/13 04:33:13;;;;;;;;;;;;;;;31.26;50.22;100949.25;5121380;27;70034;-41
2023/05/13 04:35:46;;;;;;;;;;;;;;;31.12;49.42;100952.09;5105395;27;66184;-41
2023/05/13 04:38:17;;;;;;;;;;;;;;;31.06;48.64;100944.81;5104134;27;69875;-41
2023/05/13 04:40:48;;;;;;;;;;;;;;;31.01;48.76;100931.13;5106595;27;66903;-42
2023/05/13 04:43:25;;;;;;;;;;;;;;;30.99;47.82;100925.09;5111422;27;70600;-43
2023/05/13 04:45:58;;;;;;;;;;;;;;;30.91;47.91;100937.03;5104169;27;66068;-41
2023/05/13 04:48:29;;;;;;;;;;;;;;;30.84;47.22;100949.78;5104636;27;69311;-41
2023/05/13 04:51:00;;;;;;;;;;;;;;;30.80;46.54;100942.31;5104809;27;67268;-42
2023/05/13 04:53:32;;;;;;;;;;;;;;;30.73;46.27;100931.50;5099522;27;69625;-43
2023/05/13 04:56:05;;;;;;;;;;;;;;;30.66;45.87;100907.16;5129309;27;66114;-41
2023/05/13 04:58:36;;;;;;;;;;;;;;;30.62;46.09;100911.38;5123921;27;70226;-43
2023/05/13 05:01:06;;;;;;;;;;;;;;;30.60;45.57;100918.03;5104935;27;65525;-42
2023/05/13 05:03:37;;;;;;;;;;;;;;;30.50;45.65;100919.31;5101235;27;70007;-42
2023/05/13 05:06:08;;;;;;;;;;;;;;;30.53;44.96;100928.91;5120091;27;66785;-42
2023/05/13 05:08:40;;;;;;;;;;;;;;;30.50;45.76;100934.75;5115200;27;69557;-41
2023/05/13 05:11:11;;;;;;;;;;;;;;;30.47;45.96;100929.75;5099647;27;67238;-41
2023/05/13 05:13:42;;;;;;;;;;;;;;;30.46;45.00;100938.94;5102531;27;70322;-41
2023/05/13 05:16:17;;;;;;;;;;;;;;;30.49;45.32;100938.50;5125530;27;66473;-40
2023/05/13 05:18:53;;;;;;;;;;;;;;;30.44;44.81;100927.50;5110253;27;69320;-41
2023/05/13 05:21:26;;;;;;;;;;;;;;;30.45;45.38;100921.03;5112521;27;66156;-41
2023/05/13 05:23:58;;;;;;;;;;;;;;;30.49;44.25;100911.44;5128933;27;69679;-45
2023/05/13 05:26:29;;;;;;;;;;;;;;;30.55;44.62;100898.91;5107508;27;66143;-43
2023/05/13 05:29:05;;;;;;;;;;;;;;;30.49;44.63;100892.50;5133935;27;70332;-41
2023/05/13 05:31:35;;;;;;;;;;;;;;;30.49;43.83;100892.50;5121843;27;67011;-44
2023/05/13 05:34:06;;;;;;;;;;;;;;;30.46;44.14;100887.50;5121361;27;70585;-40
2023/05/13 05:36:37;;;;;;;;;;;;;;;30.50;43.91;100886.03;5118716;27;66276;-42
2023/05/13 05:39:08;;;;;;;;;;;;;;;30.46;43.75;100879.41;5101763;27;70591;-43
2023/05/13 05:41:38;;;;;;;;;;;;;;;30.55;43.35;100878.09;5108012;27;66915;-41
2023/05/13 05:44:12;;;;;;;;;;;;;;;30.49;43.13;100863.53;5123087;27;70724;-43
2023/05/13 05:46:42;;;;;;;;;;;;;;;30.47;42.85;100848.56;5110238;27;66719;-43
2023/05/13 05:49:13;;;;;;;;;;;;;;;30.44;42.92;100832.75;5101330;27;71179;-42
2023/05/13 05:51:45;;;;;;;;;;;;;;;30.44;42.81;100805.69;5127084;27;65617;-41
2023/05/13 05:54:16;;;;;;;;;;;;;;;30.50;42.72;100807.53;5124573;27;70591;-44
2023/05/13 05:56:46;;;;;;;;;;;;;;;30.50;42.63;100800.22;5124570;27;66018;-41
2023/05/13 05:59:17;;;;;;;;;;;;;;;30.55;42.48;100807.69;5121278;27;70524;-40
2023/05/13 06:01:47;;;;;;;;;;;;;;;30.50;42.12;100799.41;5108123;27;67115;-43
2023/05/13 06:04:18;;;;;;;;;;;;;;;30.51;42.02;100790.25;5116780;27;68813;-42
2023/05/13 06:06:49;;;;;;;;;;;;;;;30.13;41.94;100722.63;5121003;27;67021;-42
2023/05/13 06:09:19;;;;;;;;;;;;;;;30.49;41.67;100787.75;5122351;27;70240;-43
2023/05/13 06:11:51;;;;;;;;;;;;;;;30.50;41.76;100777.75;5116654;27;66420;-42
2023/05/13 06:14:26;;;;;;;;;;;;;;;30.48;41.74;100764.44;5116947;27;69649;-41
2023/05/13 06:16:57;;;;;;;;;;;;;;;30.58;41.51;100769.34;5121429;27;66447;-41
2023/05/13 06:19:30;;;;;;;;;;;;;;;30.55;41.33;100755.44;5121870;27;70197;-42
2023/05/13 06:22:01;;;;;;;;;;;;;;;30.58;41.08;100753.13;5111059;27;65983;-43
2023/05/13 06:24:32;;;;;;;;;;;;;;;30.66;42.19;100754.72;5111901;27;70345;-41
2023/05/13 06:27:03;;;;;;;;;;;;;;;30.61;42.22;100755.38;5106052;27;66330;-45
2023/05/13 06:29:33;;;;;;;;;;;;;;;30.66;42.44;100755.53;5120621;27;69449;-43
2023/05/13 06:32:04;;;;;;;;;;;;;;;30.63;41.89;100734.31;5107426;27;66417;-40
2023/05/13 06:34:35;;;;;;;;;;;;;;;30.62;41.54;100726.41;5121207;27;70733;-41
2023/05/13 06:37:06;;;;;;;;;;;;;;;30.58;41.37;100731.44;5108017;27;66925;-45
2023/05/13 06:39:37;;;;;;;;;;;;;;;30.59;40.92;100725.00;5088261;27;70026;-42
2023/05/13 06:42:08;;;;;;;;;;;;;;;30.63;40.77;100728.91;5131634;27;64805;-40
2023/05/13 06:44:45;;;;;;;;;;;;;;;30.62;41.13;100716.44;5104954;27;70286;-42
2023/05/13 06:47:15;;;;;;;;;;;;;;;30.64;40.66;100713.50;5116944;27;67049;-41
2023/05/13 06:49:46;;;;;;;;;;;;;;;30.73;40.85;100706.75;5104369;27;69722;-42
2023/05/13 06:52:18;;;;;;;;;;;;;;;30.71;40.84;100701.56;5115183;27;66431;-44
2023/05/13 06:54:49;;;;;;;;;;;;;;;30.70;40.62;100694.50;5104896;27;70730;-42
2023/05/13 06:57:20;;;;;;;;;;;;;;;30.75;40.59;100693.81;5104362;27;66875;-41
2023/05/13 07:00:00;;;;;;;;;;;;;;;30.76;40.84;100678.38;5128614;27;69238;-42
2023/05/13 07:02:32;;;;;;;;;;;;;;;30.85;40.33;100668.97;5120608;27;65124;-43
2023/05/13 07:05:03;;;;;;;;;;;;;;;30.87;40.42;100669.53;5130136;27;69728;-41
2023/05/13 07:07:34;;;;;;;;;;;;;;;30.87;40.29;100658.72;5121816;27;66950;-42
2023/05/13 07:10:04;;;;;;;;;;;;;;;30.86;40.31;100657.06;5122577;27;70703;-43
2023/05/13 07:12:35;;;;;;;;;;;;;;;30.87;40.00;100653.28;5117738;27;66658;-43
2023/05/13 07:15:06;;;;;;;;;;;;;;;30.92;40.10;100646.16;5126636;27;69999;-42
2023/05/13 07:17:36;;;;;;;;;;;;;;;30.88;39.89;100642.25;5121384;27;66375;-43
2023/05/13 07:20:08;;;;;;;;;;;;;;;30.97;40.03;100640.06;5120873;27;70238;-45
2023/05/13 07:22:38;;;;;;;;;;;;;;;30.99;40.19;100632.53;5129480;27;65438;-41
2023/05/13 07:25:09;;;;;;;;;;;;;;;30.97;40.09;100631.94;5125960;27;70404;-41
2023/05/13 07:27:40;;;;;;;;;;;;;;;30.97;39.74;100631.94;5132282;27;65610;-41
2023/05/13 07:30:11;;;;;;;;;;;;;;;30.91;39.69;100627.44;5123424;27;69266;-44
2023/05/13 07:32:42;;;;;;;;;;;;;;;30.92;39.94;100623.66;5104520;27;66025;-42
2023/05/13 07:35:13;;;;;;;;;;;;;;;31.02;39.93;100625.84;5123924;27;70103;-43
2023/05/13 07:37:44;;;;;;;;;;;;;;;30.99;39.42;100613.56;5128063;27;67265;-42
2023/05/13 07:40:14;;;;;;;;;;;;;;;31.04;39.21;100602.88;5128093;27;70333;-41
2023/05/13 07:42:45;;;;;;;;;;;;;;;30.97;38.95;100604.84;5104900;27;66166;-43
2023/05/13 07:45:18;;;;;;;;;;;;;;;30.99;39.47;100602.75;5120683;27;70209;-43
2023/05/13 07:47:49;;;;;;;;;;;;;;;31.01;39.71;100600.63;5114793;27;66451;-41
2023/05/13 07:50:20;;;;;;;;;;;;;;;31.13;39.79;100597.97;5123495;27;70620;-42
2023/05/13 07:52:51;;;;;;;;;;;;;;;31.11;39.66;100592.78;5116398;27;65635;-42
2023/05/13 07:55:21;;;;;;;;;;;;;;;31.15;39.95;100585.84;5119216;27;70561;-41
2023/05/13 07:57:52;;;;;;;;;;;;;;;31.24;39.54;100588.25;5117656;27;66696;-41
2023/05/13 08:00:22;;;;;;;;;;;;;;;31.20;39.62;100592.47;5122653;27;70549;-41
2023/05/13 08:02:53;;;;;;;;;;;;;;;31.22;39.73;100587.66;5118238;27;66801;-40
2023/05/13 08:05:23;;;;;;;;;;;;;;;31.24;39.55;100604.50;5109042;27;70283;-41
2023/05/13 08:07:54;;;;;;;;;;;;;;;31.26;39.69;100602.38;5118782;27;66282;-41
2023/05/13 08:10:25;;;;;;;;;;;;;;;31.21;39.45;100597.66;5119291;27;69315;-42
2023/05/13 08:12:56;;;;;;;;;;;;;;;31.25;39.14;100595.31;5118012;27;67209;-40
2023/05/13 08:15:27;;;;;;;;;;;;;;;31.24;39.35;100599.09;5113873;27;70672;-41
2023/05/13 08:17:57;;;;;;;;;;;;;;;31.23;39.43;100584.72;5120353;27;67022;-43
2023/05/13 08:20:28;;;;;;;;;;;;;;;31.28;40.66;100589.44;5128612;27;70579;-42
2023/05/13 08:23:00;;;;;;;;;;;;;;;31.30;40.92;100577.31;5128953;27;65587;-42
2023/05/13 08:25:31;;;;;;;;;;;;;;;31.29;40.94;100577.56;5095142;27;68824;-42
2023/05/13 08:28:02;;;;;;;;;;;;;;;31.23;40.34;100575.72;5117341;27;66774;-40
2023/05/13 08:30:35;;;;;;;;;;;;;;;31.30;41.60;100566.47;5122101;27;69788;-42
2023/05/13 08:33:07;;;;;;;;;;;;;;;31.29;41.25;100572.94;5118395;27;65504;-43
2023/05/13 08:35:38;;;;;;;;;;;;;;;31.38;41.50;100565.34;5117690;27;69985;-42
2023/05/13 08:38:10;;;;;;;;;;;;;;;31.41;41.51;100562.16;5115914;27;66359;-43
2023/05/13 08:40:41;;;;;;;;;;;;;;;31.35;41.14;100558.47;5122882;27;69710;-42
2023/05/13 08:43:14;;;;;;;;;;;;;;;31.42;41.71;100563.81;5116302;27;66644;-43
2023/05/13 08:45:46;;;;;;;;;;;;;;;31.41;41.77;100562.16;5119583;27;70952;-42
2023/05/13 08:48:18;;;;;;;;;;;;;;;31.05;41.78;100507.00;5120688;27;66945;-39
2023/05/13 08:50:49;;;;;;;;;;;;;;;31.73;45.28;100580.84;5120074;27;70331;-42
2023/05/13 08:53:20;;;;;;;;;;;;;;;32.07;53.29;100575.72;5120802;27;66527;-42
2023/05/13 08:55:51;;;;;;;;;;;;;;;32.32;53.54;100568.19;5101224;27;70288;-41
2023/05/13 08:58:21;;;;;;;;;;;;;;;32.53;53.64;100565.94;5119386;27;65948;-41
2023/05/13 09:00:55;;;;;;;;;;;;;;;32.70;54.05;100564.94;5112929;27;69619;-42
2023/05/13 09:03:27;;;;;;;;;;;;;;;32.85;54.60;100569.88;5125564;27;66102;-41
2023/05/13 09:06:00;;;;;;;;;;;;;;;32.99;54.67;100559.53;5101202;27;69225;-42
2023/05/13 09:08:31;;;;;;;;;;;;;;;33.12;55.20;100561.16;5123030;27;66652;-42
2023/05/13 09:11:02;;;;;;;;;;;;;;;33.21;55.36;100559.72;5101472;27;69835;-43
2023/05/13 09:13:36;;;;;;;;;;;;;;;33.29;55.98;100564.75;5134042;27;65678;-41
2023/05/13 09:16:07;;;;;;;;;;;;;;;33.36;55.88;100561.88;5125084;27;68959;-41
2023/05/13 09:18:38;;;;;;;;;;;;;;;33.44;56.34;100547.06;5129333;27;65177;-43
2023/05/13 09:21:28;;;;;;;;;;;;;;;33.46;56.45;100556.63;5130761;27;70319;-41
2023/05/13 09:24:09;;;;;;;;;;;;;;;33.56;56.72;100561.44;5125711;27;66238;-43
2023/05/13 09:26:41;;;;;;;;;;;;;;;33.61;57.05;100572.41;5129604;27;70187;-45
2023/05/13 09:29:19;;;;;;;;;;;;;;;33.63;57.40;100561.25;5128869;27;67138;-42
2023/05/13 09:31:54;;;;;;;;;;;;;;;33.71;57.80;100580.75;5133710;27;70998;-43
2023/05/13 09:34:35;;;;;;;;;;;;;;;33.75;58.24;100573.72;5123796;27;66852;-42
2023/05/13 09:37:06;;;;;;;;;;;;;;;33.78;58.92;100575.94;5136258;27;69081;-43
2023/05/13 09:39:40;;;;;;;;;;;;;;;33.82;58.81;100570.81;5126451;27;68512;-42
2023/05/13 09:42:17;;;;;;;;;;;;;;;33.85;58.77;100569.50;5134951;27;70244;-44
2023/05/13 09:44:48;;;;;;;;;;;;;;;33.87;58.83;100579.06;5120266;27;65953;-44
2023/05/13 09:47:19;;;;;;;;;;;;;;;33.90;58.65;100584.00;5128471;27;69321;-42
2023/05/13 09:49:54;;;;;;;;;;;;;;;33.92;58.86;100587.31;5129273;27;66965;-44
2023/05/13 09:52:25;;;;;;;;;;;;;;;33.96;58.94;100587.63;5116116;27;69232;-41
2023/05/13 09:54:57;;;;;;;;;;;;;;;33.97;58.76;100589.31;5121957;27;66645;-41
2023/05/13 09:57:30;;;;;;;;;;;;;;;33.99;58.48;100598.03;5103716;27;69831;-41
2023/05/13 10:00:06;;;;;;;;;;;;;;;34.00;58.75;100599.69;5126570;27;64894;-41
2023/05/13 10:02:48;;;;;;;;;;;;;;;34.01;58.55;100604.88;5125670;27;70541;-44
2023/05/13 10:05:20;;;;;;;;;;;;;;;34.02;58.60;100609.25;5118485;27;66646;-42
2023/05/13 10:07:51;;;;;;;;;;;;;;;34.04;58.77;100609.00;5123177;27;71015;-42
2023/05/13 10:10:22;;;;;;;;;;;;;;;34.06;58.75;100612.31;5121028;27;65596;-41
2023/05/13 10:12:53;;;;;;;;;;;;;;;34.08;59.01;100612.91;5122438;27;70445;-44
2023/05/13 10:15:24;;;;;;;;;;;;;;;34.09;58.98;100622.72;5125639;27;67004;-43
2023/05/13 10:17:56;;;;;;;;;;;;;;;34.09;59.05;100622.72;5132508;27;70736;-41
2023/05/13 10:20:27;;;;;;;;;;;;;;;34.08;59.35;100628.44;5122787;27;65343;-41
2023/05/13 10:22:58;;;;;;;;;;;;;;;34.08;60.26;100640.13;5119425;27;69072;-43
2023/05/13 10:25:29;;;;;;;;;;;;;;;34.09;60.22;100647.22;5125723;27;65459;-42
2023/05/13 10:28:03;;;;;;;;;;;;;;;34.10;60.55;100653.47;5120186;27;70368;-43
2023/05/13 10:30:34;;;;;;;;;;;;;;;34.12;60.78;100662.22;5129463;27;65548;-43
2023/05/13 10:33:05;;;;;;;;;;;;;;;34.13;60.91;100669.31;5110064;27;70479;-43
2023/05/13 10:35:37;;;;;;;;;;;;;;;34.12;61.41;100668.50;5138612;27;66090;-43
2023/05/13 10:38:21;;;;;;;;;;;;;;;34.08;61.54;100670.06;5105178;27;69864;-41
2023/05/13 10:41:10;;;;;;;;;;;;;;;34.09;61.41;100679.06;5111119;27;67101;-43
2023/05/13 10:43:41;;;;;;;;;;;;;;;34.08;61.20;100683.69;5127281;27;70456;-43
2023/05/13 10:46:12;;;;;;;;;;;;;;;34.08;61.23;100682.84;5124648;27;66665;-42
2023/05/13 10:48:43;;;;;;;;;;;;;;;34.07;61.34;100690.19;5128236;27;70772;-44
2023/05/13 10:51:14;;;;;;;;;;;;;;;34.07;61.33;100683.91;5119695;27;66092;-42
2023/05/13 10:53:48;;;;;;;;;;;;;;;34.14;61.49;100698.19;5120309;27;70643;-42
2023/05/13 10:56:26;;;;;;;;;;;;;;;34.06;61.76;100677.66;5124632;27;67012;-44
2023/05/13 10:59:01;;;;;;;;;;;;;;;34.15;61.84;100706.09;5122857;27;70755;-43
2023/05/13 11:01:46;;;;;;;;;;;;;;;34.14;62.19;100699.00;5109662;27;66437;-43
2023/05/13 11:04:17;;;;;;;;;;;;;;;34.08;62.93;100704.63;5101735;27;69525;-41
2023/05/13 11:07:07;;;;;;;;;;;;;;;34.06;62.79;100707.59;5118908;27;65903;-41
2023/05/13 11:09:38;;;;;;;;;;;;;;;34.12;62.48;100706.59;5104197;27;70079;-40
2023/05/13 11:12:14;;;;;;;;;;;;;;;34.07;62.89;100714.66;5118622;27;66326;-39
2023/05/13 11:14:45;;;;;;;;;;;;;;;33.99;62.98;100712.31;5134860;27;70599;-39
2023/05/13 11:17:19;;;;;;;;;;;;;;;33.89;63.49;100714.88;5106153;27;65975;-44
2023/05/13 11:19:50;;;;;;;;;;;;;;;33.90;63.83;100713.81;5119133;27;69850;-43
2023/05/13 11:22:25;;;;;;;;;;;;;;;33.86;64.26;100718.09;5115904;27;66986;-45
2023/05/13 11:25:09;;;;;;;;;;;;;;;33.83;64.37;100718.59;5120458;27;70452;-43
2023/05/13 11:27:41;;;;;;;;;;;;;;;33.81;64.67;100726.97;5069397;27;66608;-41
2023/05/13 11:30:27;;;;;;;;;;;;;;;33.77;65.21;100731.28;5119171;27;68403;-41
2023/05/13 11:32:58;;;;;;;;;;;;;;;33.71;65.58;100726.78;5120183;27;65817;-41
2023/05/13 11:35:42;;;;;;;;;;;;;;;33.68;66.05;100722.66;5120678;27;70759;-42
2023/05/13 11:38:22;;;;;;;;;;;;;;;33.64;66.27;100732.38;5123480;27;65430;-40
2023/05/13 11:40:55;;;;;;;;;;;;;;;33.64;66.51;100734.28;5117839;27;70542;-43
2023/05/13 11:43:26;;;;;;;;;;;;;;;33.63;66.38;100751.66;5101590;27;65135;-40
2023/05/13 11:45:57;;;;;;;;;;;;;;;33.60;66.63;100753.00;5115661;27;70977;-42
2023/05/13 11:48:28;;;;;;;;;;;;;;;33.60;66.51;100758.44;5119580;27;65605;-42
2023/05/13 11:50:59;;;;;;;;;;;;;;;33.56;66.86;100754.53;5127334;27;69988;-39
2023/05/13 11:53:30;;;;;;;;;;;;;;;33.53;67.13;100768.59;5117744;27;66796;-41
2023/05/13 11:56:11;;;;;;;;;;;;;;;33.51;67.00;100774.25;5126696;27;70648;-41
2023/05/13 11:58:42;;;;;;;;;;;;;;;33.46;67.52;100784.19;5107205;27;66831;-41
2023/05/13 12:01:16;;;;;;;;;;;;;;;33.45;68.02;100787.97;5122371;27;68965;-42
2023/05/13 12:04:00;;;;;;;;;;;;;;;33.26;68.16;100796.28;5098519;27;67202;-43
2023/05/13 12:06:30;;;;;;;;;;;;;;;33.29;67.89;100803.13;5117765;27;70229;-44
2023/05/13 12:09:05;;;;;;;;;;;;;;;33.31;67.52;100812.72;5125144;27;67097;-46
2023/05/13 12:11:37;;;;;;;;;;;;;;;33.34;67.21;100814.94;5096960;27;69069;-42
2023/05/13 12:14:11;;;;;;;;;;;;;;;33.40;66.73;100817.78;5125845;27;66139;-43
2023/05/13 12:16:42;;;;;;;;;;;;;;;33.41;66.62;100814.84;5118877;27;70200;-45
2023/05/13 12:19:13;;;;;;;;;;;;;;;33.43;66.31;100823.56;5127990;27;66657;-46
2023/05/13 12:21:43;;;;;;;;;;;;;;;33.46;66.23;100828.56;5119804;27;70206;-44
2023/05/13 12:24:19;;;;;;;;;;;;;;;33.47;66.28;100823.94;5124439;27;66820;-46
2023/05/13 12:26:50;;;;;;;;;;;;;;;33.50;65.87;100823.44;5101068;27;68929;-45
2023/05/13 12:29:21;;;;;;;;;;;;;;;33.50;66.07;100839.75;5099176;27;65534;-45
2023/05/13 12:32:05;;;;;;;;;;;;;;;33.50;65.81;100840.59;5121978;27;70236;-45
2023/05/13 12:34:37;;;;;;;;;;;;;;;33.53;65.74;100850.19;5120872;27;66566;-45
2023/05/13 12:37:09;;;;;;;;;;;;;;;33.53;65.80;100844.75;5121188;27;70522;-46
2023/05/13 12:39:41;;;;;;;;;;;;;;;33.53;65.49;100850.19;5121526;27;65887;-45
2023/05/13 12:42:16;;;;;;;;;;;;;;;33.54;65.44;100868.16;5129560;27;71267;-46
2023/05/13 12:44:46;;;;;;;;;;;;;;;33.53;65.37;100872.78;5122269;27;66473;-45
2023/05/13 12:47:19;;;;;;;;;;;;;;;33.54;65.12;100874.44;5128351;27;70293;-45
2023/05/13 12:49:53;;;;;;;;;;;;;;;33.21;65.30;100814.38;5119715;27;66407;-46
2023/05/13 12:52:27;;;;;;;;;;;;;;;33.53;65.13;100867.34;5106281;27;70932;-46
2023/05/13 12:54:58;;;;;;;;;;;;;;;33.52;65.10;100870.28;5126328;27;67911;-45
2023/05/13 12:57:32;;;;;;;;;;;;;;;33.53;65.13;100882.81;5126681;27;70306;-43
2023/05/13 13:00:03;;;;;;;;;;;;;;;33.54;65.26;100879.03;5126561;27;67123;-45